sensor_id;sensor_type;location;lat;lon;timestamp;P1;durP1;ratioP1;P2;durP2;ratioP2
44774;SDS011;31340;51.402;0.016;2023-07-13T00:02:19;9.70;;;2.97;;
44774;SDS011;31340;51.402;0.016;2023-07-13T00:04:46;16.05;;;4.28;;
44774;SDS011;31340;51.402;0.016;2023-07-13T00:07:14;9.85;;;2.30;;
44774;SDS011;31340;51.402;0.016;2023-07-13T00:09:42;5.95;;;2.50;;
44774;SDS011;31340;51.402;0.016;2023-07-13T00:12:21;9.65;;;2.60;;
44774;SDS011;31340;51.402;0.016;2023-07-13T00:14:58;6.72;;;2.20;;
44774;SDS011;31340;51.402;0.016;2023-07-13T00:17:28;10.55;;;2.58;;
44774;SDS011;31340;51.402;0.016;2023-07-13T00:19:56;11.70;;;3.63;;
44774;SDS011;31340;51.402;0.016;2023-07-13T00:22:25;10.25;;;3.20;;
44774;SDS011;31340;51.402;0.016;2023-07-13T00:24:53;9.25;;;2.60;;
44774;SDS011;31340;51.402;0.016;2023-07-13T00:27:23;7.22;;;2.47;;
44774;SDS011;31340;51.402;0.016;2023-07-13T00:29:53;6.47;;;2.25;;
44774;SDS011;31340;51.402;0.016;2023-07-13T00:32:21;8.73;;;2.63;;
44774;SDS011;31340;51.402;0.016;2023-07-13T00:34:49;7.07;;;2.97;;
44774;SDS011;31340;51.402;0.016;2023-07-13T00:37:18;8.73;;;2.40;;
44774;SDS011;31340;51.402;0.016;2023-07-13T00:39:46;8.30;;;3.03;;
44774;SDS011;31340;51.402;0.016;2023-07-13T00:42:14;7.63;;;2.47;;
44774;SDS011;31340;51.402;0.016;2023-07-13T00:45:00;10.98;;;3.40;;
44774;SDS011;31340;51.402;0.016;2023-07-13T00:47:51;8.15;;;2.58;;
44774;SDS011;31340;51.402;0.016;2023-07-13T00:50:19;9.55;;;2.78;;
44774;SDS011;31340;51.402;0.016;2023-07-13T00:52:49;6.40;;;2.33;;
44774;SDS011;31340;51.402;0.016;2023-07-13T00:55:20;9.73;;;2.80;;
44774;SDS011;31340;51.402;0.016;2023-07-13T00:57:49;7.55;;;2.17;;
44774;SDS011;31340;51.402;0.016;2023-07-13T01:00:16;8.40;;;2.58;;
44774;SDS011;31340;51.402;0.016;2023-07-13T01:02:46;8.57;;;2.83;;
44774;SDS011;31340;51.402;0.016;2023-07-13T01:05:18;8.32;;;2.75;;
44774;SDS011;31340;51.402;0.016;2023-07-13T01:07:49;14.30;;;3.40;;
44774;SDS011;31340;51.402;0.016;2023-07-13T01:10:22;7.35;;;2.85;;
44774;SDS011;31340;51.402;0.016;2023-07-13T01:12:52;7.47;;;3.28;;
44774;SDS011;31340;51.402;0.016;2023-07-13T01:18:22;7.32;;;2.42;;
44774;SDS011;31340;51.402;0.016;2023-07-13T01:20:56;8.15;;;2.45;;
44774;SDS011;31340;51.402;0.016;2023-07-13T01:23:29;9.85;;;2.85;;
44774;SDS011;31340;51.402;0.016;2023-07-13T01:25:58;10.35;;;2.72;;
44774;SDS011;31340;51.402;0.016;2023-07-13T01:28:27;11.23;;;3.17;;
44774;SDS011;31340;51.402;0.016;2023-07-13T01:30:56;12.75;;;2.80;;
44774;SDS011;31340;51.402;0.016;2023-07-13T01:33:25;15.77;;;3.00;;
44774;SDS011;31340;51.402;0.016;2023-07-13T01:35:53;12.70;;;3.58;;
44774;SDS011;31340;51.402;0.016;2023-07-13T01:38:24;10.68;;;2.70;;
44774;SDS011;31340;51.402;0.016;2023-07-13T01:40:53;7.15;;;3.05;;
44774;SDS011;31340;51.402;0.016;2023-07-13T01:43:24;7.78;;;2.53;;
44774;SDS011;31340;51.402;0.016;2023-07-13T01:45:51;8.88;;;2.65;;
44774;SDS011;31340;51.402;0.016;2023-07-13T01:48:19;11.00;;;3.10;;
44774;SDS011;31340;51.402;0.016;2023-07-13T01:50:48;10.18;;;2.92;;
44774;SDS011;31340;51.402;0.016;2023-07-13T01:53:16;10.55;;;3.03;;
44774;SDS011;31340;51.402;0.016;2023-07-13T01:55:43;9.27;;;3.00;;
44774;SDS011;31340;51.402;0.016;2023-07-13T01:58:11;7.60;;;2.70;;
44774;SDS011;31340;51.402;0.016;2023-07-13T02:00:39;12.52;;;3.30;;
44774;SDS011;31340;51.402;0.016;2023-07-13T02:03:06;12.15;;;2.70;;
44774;SDS011;31340;51.402;0.016;2023-07-13T02:05:34;6.65;;;2.80;;
44774;SDS011;31340;51.402;0.016;2023-07-13T02:08:03;8.40;;;2.47;;
44774;SDS011;31340;51.402;0.016;2023-07-13T02:10:31;10.55;;;2.97;;
44774;SDS011;31340;51.402;0.016;2023-07-13T02:12:59;8.98;;;2.55;;
44774;SDS011;31340;51.402;0.016;2023-07-13T02:15:27;9.95;;;3.00;;
44774;SDS011;31340;51.402;0.016;2023-07-13T02:17:54;10.05;;;3.20;;
44774;SDS011;31340;51.402;0.016;2023-07-13T02:20:24;9.43;;;2.95;;
44774;SDS011;31340;51.402;0.016;2023-07-13T02:22:53;7.03;;;2.53;;
44774;SDS011;31340;51.402;0.016;2023-07-13T02:25:21;9.32;;;2.78;;
44774;SDS011;31340;51.402;0.016;2023-07-13T02:27:49;9.30;;;2.92;;
44774;SDS011;31340;51.402;0.016;2023-07-13T02:30:17;9.93;;;2.75;;
44774;SDS011;31340;51.402;0.016;2023-07-13T02:32:45;12.95;;;2.80;;
44774;SDS011;31340;51.402;0.016;2023-07-13T02:35:13;11.27;;;3.65;;
44774;SDS011;31340;51.402;0.016;2023-07-13T02:37:41;7.47;;;2.67;;
44774;SDS011;31340;51.402;0.016;2023-07-13T02:40:09;7.53;;;3.00;;
44774;SDS011;31340;51.402;0.016;2023-07-13T02:42:37;7.43;;;2.42;;
44774;SDS011;31340;51.402;0.016;2023-07-13T02:45:07;12.02;;;3.17;;
44774;SDS011;31340;51.402;0.016;2023-07-13T02:47:36;12.40;;;2.72;;
44774;SDS011;31340;51.402;0.016;2023-07-13T02:50:04;11.77;;;3.50;;
44774;SDS011;31340;51.402;0.016;2023-07-13T02:52:33;5.72;;;2.55;;
44774;SDS011;31340;51.402;0.016;2023-07-13T02:55:00;8.00;;;2.78;;
44774;SDS011;31340;51.402;0.016;2023-07-13T02:57:28;7.10;;;2.80;;
44774;SDS011;31340;51.402;0.016;2023-07-13T02:59:56;9.45;;;2.67;;
44774;SDS011;31340;51.402;0.016;2023-07-13T03:02:23;6.25;;;3.17;;
44774;SDS011;31340;51.402;0.016;2023-07-13T03:04:52;9.18;;;2.75;;
44774;SDS011;31340;51.402;0.016;2023-07-13T03:07:20;8.40;;;2.67;;
44774;SDS011;31340;51.402;0.016;2023-07-13T03:09:53;6.78;;;2.92;;
44774;SDS011;31340;51.402;0.016;2023-07-13T03:12:24;7.13;;;2.83;;
44774;SDS011;31340;51.402;0.016;2023-07-13T03:14:53;6.40;;;2.28;;
44774;SDS011;31340;51.402;0.016;2023-07-13T03:17:22;11.40;;;3.00;;
44774;SDS011;31340;51.402;0.016;2023-07-13T03:19:50;9.75;;;2.67;;
44774;SDS011;31340;51.402;0.016;2023-07-13T03:22:18;9.88;;;3.03;;
44774;SDS011;31340;51.402;0.016;2023-07-13T03:24:46;11.13;;;3.28;;
44774;SDS011;31340;51.402;0.016;2023-07-13T03:27:16;7.32;;;2.67;;
44774;SDS011;31340;51.402;0.016;2023-07-13T03:29:46;8.90;;;2.67;;
44774;SDS011;31340;51.402;0.016;2023-07-13T03:32:16;11.82;;;3.20;;
44774;SDS011;31340;51.402;0.016;2023-07-13T03:34:43;11.30;;;3.22;;
44774;SDS011;31340;51.402;0.016;2023-07-13T03:37:12;7.35;;;2.83;;
44774;SDS011;31340;51.402;0.016;2023-07-13T03:39:40;6.53;;;2.92;;
44774;SDS011;31340;51.402;0.016;2023-07-13T03:42:09;7.18;;;3.00;;
44774;SDS011;31340;51.402;0.016;2023-07-13T03:44:37;6.57;;;2.90;;
44774;SDS011;31340;51.402;0.016;2023-07-13T03:47:06;9.02;;;3.10;;
44774;SDS011;31340;51.402;0.016;2023-07-13T03:49:35;12.20;;;2.90;;
44774;SDS011;31340;51.402;0.016;2023-07-13T03:52:03;10.45;;;3.03;;
44774;SDS011;31340;51.402;0.016;2023-07-13T03:54:31;11.77;;;3.03;;
44774;SDS011;31340;51.402;0.016;2023-07-13T03:57:01;16.80;;;3.45;;
44774;SDS011;31340;51.402;0.016;2023-07-13T03:59:31;11.68;;;2.75;;
44774;SDS011;31340;51.402;0.016;2023-07-13T04:02:00;10.32;;;3.38;;
44774;SDS011;31340;51.402;0.016;2023-07-13T04:04:28;15.60;;;3.17;;
44774;SDS011;31340;51.402;0.016;2023-07-13T04:06:57;8.43;;;3.30;;
44774;SDS011;31340;51.402;0.016;2023-07-13T04:09:25;6.63;;;2.58;;
44774;SDS011;31340;51.402;0.016;2023-07-13T04:11:53;10.50;;;2.97;;
44774;SDS011;31340;51.402;0.016;2023-07-13T04:14:20;11.05;;;3.28;;
44774;SDS011;31340;51.402;0.016;2023-07-13T04:16:48;6.53;;;2.65;;
44774;SDS011;31340;51.402;0.016;2023-07-13T04:19:16;8.30;;;2.92;;
44774;SDS011;31340;51.402;0.016;2023-07-13T04:21:44;11.00;;;2.83;;
44774;SDS011;31340;51.402;0.016;2023-07-13T04:24:12;9.82;;;2.65;;
44774;SDS011;31340;51.402;0.016;2023-07-13T04:26:40;5.93;;;2.50;;
44774;SDS011;31340;51.402;0.016;2023-07-13T04:29:07;6.70;;;2.25;;
44774;SDS011;31340;51.402;0.016;2023-07-13T04:31:35;7.85;;;2.53;;
44774;SDS011;31340;51.402;0.016;2023-07-13T04:34:03;10.75;;;3.25;;
44774;SDS011;31340;51.402;0.016;2023-07-13T04:36:31;8.25;;;2.60;;
44774;SDS011;31340;51.402;0.016;2023-07-13T04:38:59;11.98;;;2.80;;
44774;SDS011;31340;51.402;0.016;2023-07-13T04:41:27;8.88;;;2.45;;
44774;SDS011;31340;51.402;0.016;2023-07-13T04:43:55;5.43;;;2.45;;
44774;SDS011;31340;51.402;0.016;2023-07-13T04:46:23;7.47;;;2.90;;
44774;SDS011;31340;51.402;0.016;2023-07-13T04:48:51;7.53;;;2.60;;
44774;SDS011;31340;51.402;0.016;2023-07-13T04:51:21;7.13;;;2.88;;
44774;SDS011;31340;51.402;0.016;2023-07-13T04:53:48;9.38;;;2.65;;
44774;SDS011;31340;51.402;0.016;2023-07-13T04:56:19;7.53;;;2.85;;
44774;SDS011;31340;51.402;0.016;2023-07-13T04:58:47;8.55;;;2.47;;
44774;SDS011;31340;51.402;0.016;2023-07-13T05:01:14;7.40;;;2.75;;
44774;SDS011;31340;51.402;0.016;2023-07-13T05:03:42;9.40;;;2.80;;
44774;SDS011;31340;51.402;0.016;2023-07-13T05:06:09;10.88;;;2.60;;
44774;SDS011;31340;51.402;0.016;2023-07-13T05:08:37;10.85;;;3.15;;
44774;SDS011;31340;51.402;0.016;2023-07-13T05:11:05;8.43;;;2.80;;
44774;SDS011;31340;51.402;0.016;2023-07-13T05:13:34;6.70;;;2.40;;
44774;SDS011;31340;51.402;0.016;2023-07-13T05:16:02;6.93;;;2.38;;
44774;SDS011;31340;51.402;0.016;2023-07-13T05:18:34;6.95;;;2.72;;
44774;SDS011;31340;51.402;0.016;2023-07-13T05:21:06;6.70;;;2.72;;
44774;SDS011;31340;51.402;0.016;2023-07-13T05:23:36;10.40;;;2.78;;
44774;SDS011;31340;51.402;0.016;2023-07-13T05:26:04;10.75;;;3.00;;
44774;SDS011;31340;51.402;0.016;2023-07-13T05:31:03;9.02;;;2.70;;
44774;SDS011;31340;51.402;0.016;2023-07-13T05:33:32;10.02;;;2.80;;
44774;SDS011;31340;51.402;0.016;2023-07-13T05:36:00;9.75;;;3.15;;
44774;SDS011;31340;51.402;0.016;2023-07-13T05:38:28;6.43;;;2.63;;
44774;SDS011;31340;51.402;0.016;2023-07-13T05:40:56;7.65;;;2.35;;
44774;SDS011;31340;51.402;0.016;2023-07-13T05:43:24;8.18;;;2.40;;
44774;SDS011;31340;51.402;0.016;2023-07-13T05:45:53;10.70;;;2.60;;
44774;SDS011;31340;51.402;0.016;2023-07-13T05:48:21;6.03;;;2.28;;
44774;SDS011;31340;51.402;0.016;2023-07-13T05:50:49;9.65;;;2.63;;
44774;SDS011;31340;51.402;0.016;2023-07-13T05:53:17;9.55;;;3.30;;
44774;SDS011;31340;51.402;0.016;2023-07-13T05:55:45;9.80;;;2.70;;
44774;SDS011;31340;51.402;0.016;2023-07-13T05:58:15;7.45;;;2.35;;
44774;SDS011;31340;51.402;0.016;2023-07-13T06:00:44;5.35;;;2.33;;
44774;SDS011;31340;51.402;0.016;2023-07-13T06:03:12;8.77;;;2.45;;
44774;SDS011;31340;51.402;0.016;2023-07-13T06:05:40;6.82;;;2.55;;
44774;SDS011;31340;51.402;0.016;2023-07-13T06:08:08;12.02;;;3.05;;
44774;SDS011;31340;51.402;0.016;2023-07-13T06:10:36;9.13;;;2.15;;
44774;SDS011;31340;51.402;0.016;2023-07-13T06:13:04;5.72;;;2.15;;
44774;SDS011;31340;51.402;0.016;2023-07-13T06:15:32;5.95;;;1.98;;
44774;SDS011;31340;51.402;0.016;2023-07-13T06:17:59;9.35;;;2.75;;
44774;SDS011;31340;51.402;0.016;2023-07-13T06:20:27;6.85;;;2.50;;
44774;SDS011;31340;51.402;0.016;2023-07-13T06:22:56;9.00;;;2.10;;
44774;SDS011;31340;51.402;0.016;2023-07-13T06:25:26;11.55;;;3.78;;
44774;SDS011;31340;51.402;0.016;2023-07-13T06:27:53;6.18;;;2.10;;
44774;SDS011;31340;51.402;0.016;2023-07-13T06:30:21;8.07;;;2.95;;
44774;SDS011;31340;51.402;0.016;2023-07-13T06:32:49;8.70;;;2.38;;
44774;SDS011;31340;51.402;0.016;2023-07-13T06:35:16;12.95;;;2.95;;
44774;SDS011;31340;51.402;0.016;2023-07-13T06:37:44;8.77;;;2.53;;
44774;SDS011;31340;51.402;0.016;2023-07-13T06:40:12;10.48;;;2.67;;
44774;SDS011;31340;51.402;0.016;2023-07-13T06:42:40;9.30;;;2.33;;
44774;SDS011;31340;51.402;0.016;2023-07-13T06:45:07;4.95;;;2.03;;
44774;SDS011;31340;51.402;0.016;2023-07-13T06:47:35;5.65;;;2.42;;
44774;SDS011;31340;51.402;0.016;2023-07-13T06:50:03;8.30;;;2.55;;
44774;SDS011;31340;51.402;0.016;2023-07-13T06:52:31;9.20;;;2.40;;
44774;SDS011;31340;51.402;0.016;2023-07-13T06:54:59;5.40;;;2.30;;
44774;SDS011;31340;51.402;0.016;2023-07-13T06:57:26;6.00;;;2.20;;
44774;SDS011;31340;51.402;0.016;2023-07-13T06:59:54;5.03;;;2.33;;
44774;SDS011;31340;51.402;0.016;2023-07-13T07:02:22;7.10;;;2.58;;
44774;SDS011;31340;51.402;0.016;2023-07-13T07:04:49;8.65;;;2.28;;
44774;SDS011;31340;51.402;0.016;2023-07-13T07:07:17;10.68;;;2.90;;
44774;SDS011;31340;51.402;0.016;2023-07-13T07:09:44;7.40;;;2.45;;
44774;SDS011;31340;51.402;0.016;2023-07-13T07:12:11;7.72;;;1.98;;
44774;SDS011;31340;51.402;0.016;2023-07-13T07:14:41;7.75;;;2.13;;
44774;SDS011;31340;51.402;0.016;2023-07-13T07:17:08;9.45;;;2.33;;
44774;SDS011;31340;51.402;0.016;2023-07-13T07:19:37;8.05;;;1.95;;
44774;SDS011;31340;51.402;0.016;2023-07-13T07:22:05;7.05;;;2.35;;
44774;SDS011;31340;51.402;0.016;2023-07-13T07:24:32;7.60;;;2.13;;
44774;SDS011;31340;51.402;0.016;2023-07-13T07:27:00;5.75;;;2.13;;
44774;SDS011;31340;51.402;0.016;2023-07-13T07:29:30;8.95;;;2.15;;
44774;SDS011;31340;51.402;0.016;2023-07-13T07:32:01;3.30;;;1.65;;
44774;SDS011;31340;51.402;0.016;2023-07-13T07:34:44;7.47;;;1.92;;
44774;SDS011;31340;51.402;0.016;2023-07-13T07:37:12;6.82;;;1.92;;
44774;SDS011;31340;51.402;0.016;2023-07-13T07:39:44;8.25;;;2.22;;
44774;SDS011;31340;51.402;0.016;2023-07-13T07:42:31;7.15;;;1.90;;
44774;SDS011;31340;51.402;0.016;2023-07-13T07:44:59;6.47;;;1.80;;
44774;SDS011;31340;51.402;0.016;2023-07-13T07:47:28;8.18;;;2.20;;
44774;SDS011;31340;51.402;0.016;2023-07-13T07:49:55;7.82;;;2.20;;
44774;SDS011;31340;51.402;0.016;2023-07-13T07:52:23;4.03;;;1.77;;
44774;SDS011;31340;51.402;0.016;2023-07-13T07:54:51;4.90;;;2.22;;
44774;SDS011;31340;51.402;0.016;2023-07-13T07:57:21;4.63;;;1.90;;
44774;SDS011;31340;51.402;0.016;2023-07-13T07:59:52;9.77;;;1.98;;
44774;SDS011;31340;51.402;0.016;2023-07-13T08:02:24;7.10;;;2.63;;
44774;SDS011;31340;51.402;0.016;2023-07-13T08:04:54;7.00;;;1.80;;
44774;SDS011;31340;51.402;0.016;2023-07-13T08:07:25;7.30;;;1.90;;
44774;SDS011;31340;51.402;0.016;2023-07-13T08:09:53;5.97;;;1.85;;
44774;SDS011;31340;51.402;0.016;2023-07-13T08:12:21;4.15;;;1.90;;
44774;SDS011;31340;51.402;0.016;2023-07-13T08:14:52;8.15;;;2.53;;
44774;SDS011;31340;51.402;0.016;2023-07-13T08:17:20;7.90;;;1.65;;
44774;SDS011;31340;51.402;0.016;2023-07-13T08:19:48;7.18;;;1.90;;
44774;SDS011;31340;51.402;0.016;2023-07-13T08:22:16;6.85;;;2.20;;
44774;SDS011;31340;51.402;0.016;2023-07-13T08:24:44;5.55;;;2.13;;
44774;SDS011;31340;51.402;0.016;2023-07-13T08:27:11;4.93;;;1.90;;
44774;SDS011;31340;51.402;0.016;2023-07-13T08:29:39;5.88;;;1.85;;
44774;SDS011;31340;51.402;0.016;2023-07-13T08:32:07;9.48;;;2.20;;
44774;SDS011;31340;51.402;0.016;2023-07-13T08:34:36;4.53;;;1.63;;
44774;SDS011;31340;51.402;0.016;2023-07-13T08:37:04;6.45;;;1.80;;
44774;SDS011;31340;51.402;0.016;2023-07-13T08:39:32;6.25;;;2.30;;
44774;SDS011;31340;51.402;0.016;2023-07-13T08:42:07;4.65;;;1.95;;
44774;SDS011;31340;51.402;0.016;2023-07-13T08:47:28;8.50;;;2.17;;
44774;SDS011;31340;51.402;0.016;2023-07-13T08:49:59;7.20;;;2.10;;
44774;SDS011;31340;51.402;0.016;2023-07-13T08:52:30;8.02;;;2.15;;
44774;SDS011;31340;51.402;0.016;2023-07-13T08:55:03;5.75;;;2.30;;
44774;SDS011;31340;51.402;0.016;2023-07-13T08:57:38;5.00;;;2.08;;
44774;SDS011;31340;51.402;0.016;2023-07-13T09:00:10;5.82;;;2.53;;
44774;SDS011;31340;51.402;0.016;2023-07-13T09:03:15;6.53;;;1.70;;
44774;SDS011;31340;51.402;0.016;2023-07-13T09:05:38;6.25;;;1.80;;
44774;SDS011;31340;51.402;0.016;2023-07-13T09:14:02;6.68;;;1.98;;
44774;SDS011;31340;51.402;0.016;2023-07-13T09:16:41;4.13;;;1.50;;
44774;SDS011;31340;51.402;0.016;2023-07-13T09:19:11;4.85;;;1.77;;
44774;SDS011;31340;51.402;0.016;2023-07-13T09:21:44;3.00;;;1.67;;
44774;SDS011;31340;51.402;0.016;2023-07-13T09:24:22;6.35;;;1.90;;
44774;SDS011;31340;51.402;0.016;2023-07-13T09:26:56;6.40;;;1.48;;
44774;SDS011;31340;51.402;0.016;2023-07-13T09:29:29;6.75;;;1.73;;
44774;SDS011;31340;51.402;0.016;2023-07-13T09:32:01;5.05;;;1.75;;
44774;SDS011;31340;51.402;0.016;2023-07-13T09:34:33;3.00;;;1.50;;
44774;SDS011;31340;51.402;0.016;2023-07-13T09:37:01;4.47;;;1.70;;
44774;SDS011;31340;51.402;0.016;2023-07-13T09:39:29;4.03;;;1.77;;
44774;SDS011;31340;51.402;0.016;2023-07-13T09:44:51;4.53;;;1.60;;
44774;SDS011;31340;51.402;0.016;2023-07-13T09:50:03;4.43;;;1.55;;
44774;SDS011;31340;51.402;0.016;2023-07-13T09:52:42;4.80;;;1.60;;
44774;SDS011;31340;51.402;0.016;2023-07-13T09:55:32;5.95;;;2.05;;
44774;SDS011;31340;51.402;0.016;2023-07-13T10:00:40;5.75;;;1.42;;
44774;SDS011;31340;51.402;0.016;2023-07-13T10:03:20;7.10;;;1.80;;
44774;SDS011;31340;51.402;0.016;2023-07-13T10:08:21;5.32;;;1.75;;
44774;SDS011;31340;51.402;0.016;2023-07-13T10:10:52;4.40;;;1.70;;
44774;SDS011;31340;51.402;0.016;2023-07-13T10:13:28;2.83;;;1.50;;
44774;SDS011;31340;51.402;0.016;2023-07-13T10:16:18;4.90;;;1.40;;
44774;SDS011;31340;51.402;0.016;2023-07-13T10:18:48;3.10;;;1.55;;
44774;SDS011;31340;51.402;0.016;2023-07-13T10:21:22;4.75;;;1.40;;
44774;SDS011;31340;51.402;0.016;2023-07-13T10:24:04;3.83;;;1.33;;
44774;SDS011;31340;51.402;0.016;2023-07-13T10:26:46;3.28;;;1.20;;
44774;SDS011;31340;51.402;0.016;2023-07-13T10:29:19;2.72;;;1.20;;
44774;SDS011;31340;51.402;0.016;2023-07-13T10:31:49;3.47;;;0.98;;
44774;SDS011;31340;51.402;0.016;2023-07-13T10:34:19;3.05;;;1.40;;
44774;SDS011;31340;51.402;0.016;2023-07-13T10:36:47;3.10;;;1.33;;
44774;SDS011;31340;51.402;0.016;2023-07-13T10:39:23;3.88;;;1.50;;
44774;SDS011;31340;51.402;0.016;2023-07-13T10:41:55;3.45;;;1.70;;
44774;SDS011;31340;51.402;0.016;2023-07-13T10:44:32;4.25;;;1.50;;
44774;SDS011;31340;51.402;0.016;2023-07-13T10:47:02;5.45;;;1.90;;
44774;SDS011;31340;51.402;0.016;2023-07-13T10:49:37;3.42;;;1.50;;
44774;SDS011;31340;51.402;0.016;2023-07-13T10:58:15;6.72;;;1.95;;
44774;SDS011;31340;51.402;0.016;2023-07-13T11:00:49;4.50;;;1.90;;
44774;SDS011;31340;51.402;0.016;2023-07-13T11:03:23;2.92;;;1.42;;
44774;SDS011;31340;51.402;0.016;2023-07-13T11:06:05;6.18;;;1.90;;
44774;SDS011;31340;51.402;0.016;2023-07-13T11:08:56;5.30;;;1.85;;
44774;SDS011;31340;51.402;0.016;2023-07-13T11:13:58;8.40;;;2.20;;
44774;SDS011;31340;51.402;0.016;2023-07-13T11:21:34;8.98;;;2.20;;
44774;SDS011;31340;51.402;0.016;2023-07-13T11:24:15;5.35;;;2.05;;
44774;SDS011;31340;51.402;0.016;2023-07-13T11:32:00;6.65;;;1.90;;
44774;SDS011;31340;51.402;0.016;2023-07-13T11:34:48;5.85;;;2.00;;
44774;SDS011;31340;51.402;0.016;2023-07-13T11:37:17;3.45;;;2.00;;
44774;SDS011;31340;51.402;0.016;2023-07-13T11:39:46;5.53;;;1.73;;
44774;SDS011;31340;51.402;0.016;2023-07-13T11:42:18;6.57;;;2.10;;
44774;SDS011;31340;51.402;0.016;2023-07-13T11:44:49;2.60;;;1.73;;
44774;SDS011;31340;51.402;0.016;2023-07-13T11:47:39;5.40;;;1.98;;
44774;SDS011;31340;51.402;0.016;2023-07-13T11:50:20;2.97;;;1.38;;
44774;SDS011;31340;51.402;0.016;2023-07-13T11:52:50;4.25;;;1.40;;
44774;SDS011;31340;51.402;0.016;2023-07-13T11:55:21;4.78;;;1.65;;
44774;SDS011;31340;51.402;0.016;2023-07-13T12:00:25;1.95;;;1.40;;
44774;SDS011;31340;51.402;0.016;2023-07-13T12:02:57;2.63;;;1.83;;
44774;SDS011;31340;51.402;0.016;2023-07-13T12:05:28;3.17;;;1.58;;
44774;SDS011;31340;51.402;0.016;2023-07-13T12:07:59;4.50;;;2.13;;
44774;SDS011;31340;51.402;0.016;2023-07-13T12:10:56;5.60;;;1.85;;
44774;SDS011;31340;51.402;0.016;2023-07-13T12:13:24;5.07;;;1.65;;
44774;SDS011;31340;51.402;0.016;2023-07-13T12:15:56;5.03;;;1.80;;
44774;SDS011;31340;51.402;0.016;2023-07-13T12:18:28;8.60;;;1.80;;
44774;SDS011;31340;51.402;0.016;2023-07-13T12:20:58;9.63;;;2.20;;
44774;SDS011;31340;51.402;0.016;2023-07-13T12:23:31;8.07;;;2.55;;
44774;SDS011;31340;51.402;0.016;2023-07-13T12:26:02;6.40;;;2.28;;
44774;SDS011;31340;51.402;0.016;2023-07-13T12:31:04;5.57;;;2.45;;
44774;SDS011;31340;51.402;0.016;2023-07-13T12:33:34;3.85;;;2.35;;
44774;SDS011;31340;51.402;0.016;2023-07-13T12:36:02;4.22;;;2.00;;
44774;SDS011;31340;51.402;0.016;2023-07-13T12:38:32;3.65;;;1.88;;
44774;SDS011;31340;51.402;0.016;2023-07-13T12:41:00;5.03;;;2.00;;
44774;SDS011;31340;51.402;0.016;2023-07-13T12:43:32;4.57;;;1.90;;
44774;SDS011;31340;51.402;0.016;2023-07-13T12:46:05;6.55;;;2.28;;
44774;SDS011;31340;51.402;0.016;2023-07-13T12:48:47;5.07;;;2.30;;
44774;SDS011;31340;51.402;0.016;2023-07-13T12:51:30;6.10;;;2.53;;
44774;SDS011;31340;51.402;0.016;2023-07-13T12:54:13;10.55;;;3.50;;
44774;SDS011;31340;51.402;0.016;2023-07-13T12:56:44;4.47;;;2.60;;
44774;SDS011;31340;51.402;0.016;2023-07-13T12:59:16;4.40;;;1.95;;
44774;SDS011;31340;51.402;0.016;2023-07-13T13:01:46;2.42;;;1.50;;
44774;SDS011;31340;51.402;0.016;2023-07-13T13:06:49;3.05;;;1.48;;
44774;SDS011;31340;51.402;0.016;2023-07-13T13:09:29;6.22;;;1.60;;
44774;SDS011;31340;51.402;0.016;2023-07-13T13:11:57;3.45;;;1.60;;
44774;SDS011;31340;51.402;0.016;2023-07-13T13:14:25;3.33;;;1.40;;
44774;SDS011;31340;51.402;0.016;2023-07-13T13:16:53;3.72;;;1.60;;
44774;SDS011;31340;51.402;0.016;2023-07-13T13:19:25;3.15;;;1.48;;
44774;SDS011;31340;51.402;0.016;2023-07-13T13:21:55;3.38;;;1.50;;
44774;SDS011;31340;51.402;0.016;2023-07-13T13:24:24;4.32;;;1.70;;
44774;SDS011;31340;51.402;0.016;2023-07-13T13:26:54;4.90;;;2.05;;
44774;SDS011;31340;51.402;0.016;2023-07-13T13:29:25;5.75;;;2.17;;
44774;SDS011;31340;51.402;0.016;2023-07-13T13:31:53;5.05;;;2.08;;
44774;SDS011;31340;51.402;0.016;2023-07-13T13:34:22;4.57;;;1.90;;
44774;SDS011;31340;51.402;0.016;2023-07-13T13:36:50;5.18;;;1.92;;
44774;SDS011;31340;51.402;0.016;2023-07-13T13:39:25;4.40;;;1.88;;
44774;SDS011;31340;51.402;0.016;2023-07-13T13:42:00;5.40;;;1.60;;
44774;SDS011;31340;51.402;0.016;2023-07-13T13:44:28;5.35;;;1.90;;
44774;SDS011;31340;51.402;0.016;2023-07-13T13:46:56;4.35;;;1.80;;
44774;SDS011;31340;51.402;0.016;2023-07-13T13:49:25;5.90;;;1.80;;
44774;SDS011;31340;51.402;0.016;2023-07-13T13:51:54;6.90;;;1.98;;
44774;SDS011;31340;51.402;0.016;2023-07-13T13:54:23;6.35;;;1.70;;
44774;SDS011;31340;51.402;0.016;2023-07-13T13:56:52;6.25;;;1.75;;
44774;SDS011;31340;51.402;0.016;2023-07-13T13:59:20;5.72;;;1.85;;
44774;SDS011;31340;51.402;0.016;2023-07-13T14:01:48;3.45;;;1.70;;
44774;SDS011;31340;51.402;0.016;2023-07-13T14:04:20;6.88;;;2.10;;
44774;SDS011;31340;51.402;0.016;2023-07-13T14:06:49;9.13;;;2.42;;
44774;SDS011;31340;51.402;0.016;2023-07-13T14:09:17;9.18;;;2.70;;
44774;SDS011;31340;51.402;0.016;2023-07-13T14:11:47;7.68;;;2.22;;
44774;SDS011;31340;51.402;0.016;2023-07-13T14:16:47;5.63;;;2.22;;
44774;SDS011;31340;51.402;0.016;2023-07-13T14:19:21;6.97;;;1.70;;
44774;SDS011;31340;51.402;0.016;2023-07-13T14:21:49;3.20;;;1.77;;
44774;SDS011;31340;51.402;0.016;2023-07-13T14:24:20;4.18;;;1.85;;
44774;SDS011;31340;51.402;0.016;2023-07-13T14:26:48;7.68;;;2.08;;
44774;SDS011;31340;51.402;0.016;2023-07-13T14:29:18;4.60;;;2.63;;
44774;SDS011;31340;51.402;0.016;2023-07-13T14:31:51;14.30;;;2.53;;
44774;SDS011;31340;51.402;0.016;2023-07-13T14:34:20;9.77;;;2.13;;
44774;SDS011;31340;51.402;0.016;2023-07-13T14:36:48;4.15;;;1.73;;
44774;SDS011;31340;51.402;0.016;2023-07-13T14:39:18;3.47;;;1.70;;
44774;SDS011;31340;51.402;0.016;2023-07-13T14:41:51;6.30;;;1.80;;
44774;SDS011;31340;51.402;0.016;2023-07-13T14:44:21;4.32;;;1.77;;
44774;SDS011;31340;51.402;0.016;2023-07-13T14:46:56;4.80;;;1.95;;
44774;SDS011;31340;51.402;0.016;2023-07-13T14:49:42;5.47;;;2.15;;
44774;SDS011;31340;51.402;0.016;2023-07-13T14:52:15;7.20;;;1.92;;
44774;SDS011;31340;51.402;0.016;2023-07-13T14:54:45;5.55;;;1.70;;
44774;SDS011;31340;51.402;0.016;2023-07-13T14:57:14;5.05;;;1.67;;
44774;SDS011;31340;51.402;0.016;2023-07-13T14:59:44;4.88;;;1.70;;
44774;SDS011;31340;51.402;0.016;2023-07-13T15:02:34;4.95;;;2.05;;
44774;SDS011;31340;51.402;0.016;2023-07-13T15:05:05;4.93;;;2.08;;
44774;SDS011;31340;51.402;0.016;2023-07-13T15:07:44;7.07;;;2.67;;
44774;SDS011;31340;51.402;0.016;2023-07-13T15:12:52;6.75;;;2.17;;
44774;SDS011;31340;51.402;0.016;2023-07-13T15:15:20;4.88;;;2.17;;
44774;SDS011;31340;51.402;0.016;2023-07-13T15:17:47;7.30;;;2.08;;
44774;SDS011;31340;51.402;0.016;2023-07-13T15:22:59;10.95;;;2.53;;
44774;SDS011;31340;51.402;0.016;2023-07-13T15:25:29;5.55;;;2.30;;
44774;SDS011;31340;51.402;0.016;2023-07-13T15:27:57;6.35;;;2.80;;
44774;SDS011;31340;51.402;0.016;2023-07-13T15:30:27;6.53;;;2.58;;
44774;SDS011;31340;51.402;0.016;2023-07-13T15:32:57;10.27;;;3.67;;
44774;SDS011;31340;51.402;0.016;2023-07-13T15:35:33;7.95;;;2.47;;
44774;SDS011;31340;51.402;0.016;2023-07-13T15:38:00;8.93;;;3.35;;
44774;SDS011;31340;51.402;0.016;2023-07-13T15:40:30;5.53;;;2.40;;
44774;SDS011;31340;51.402;0.016;2023-07-13T15:42:58;8.77;;;2.85;;
44774;SDS011;31340;51.402;0.016;2023-07-13T15:45:26;7.72;;;2.65;;
44774;SDS011;31340;51.402;0.016;2023-07-13T15:47:56;9.57;;;2.65;;
44774;SDS011;31340;51.402;0.016;2023-07-13T15:50:24;6.38;;;2.75;;
44774;SDS011;31340;51.402;0.016;2023-07-13T15:52:53;5.97;;;2.92;;
44774;SDS011;31340;51.402;0.016;2023-07-13T15:55:25;9.57;;;2.65;;
44774;SDS011;31340;51.402;0.016;2023-07-13T15:57:52;8.30;;;3.00;;
44774;SDS011;31340;51.402;0.016;2023-07-13T16:00:24;6.18;;;2.80;;
44774;SDS011;31340;51.402;0.016;2023-07-13T16:02:53;6.82;;;2.58;;
44774;SDS011;31340;51.402;0.016;2023-07-13T16:05:21;7.60;;;2.72;;